DEHLT EDDF-EDDH
Flight info
| Callsign | DEHLT |
|---|---|
| Flight time | N/A |
| Altitude | 35000 |
| Route | MARUN9S MARUN Y150 TOLGI DCT SAS/N0479F340 P605 NOLGO NOLGO6A |
| Aircraft | C700/M-SBDGHM1RWXY/LB2 |
Departure
| Time | N/A |
|---|---|
| Airport | Frankfurt Main Airport (EDDF) |
Arrival
| Time | 2026-05-06 02:41 |
|---|---|
| Airport | Hamburg Helmut Schmidt Airport (EDDH) |
| Time | Latitude | Longitude | Altitude | Speed | Heading |
|---|---|---|---|---|---|
| 2026-05-06 02:04 | 50.60801 | 8.56904 | 34100 ft | 447 kts | 18° |
| 2026-05-06 02:04 | 50.63788 | 8.58334 | 34585 ft | 450 kts | 18° |
| 2026-05-06 02:04 | 50.66815 | 8.59788 | 34752 ft | 461 kts | 18° |
| 2026-05-06 02:04 | 50.69929 | 8.61291 | 34762 ft | 475 kts | 18° |
| 2026-05-06 02:05 | 50.73137 | 8.62841 | 34763 ft | 489 kts | 18° |
| 2026-05-06 02:05 | 50.76421 | 8.64471 | 34759 ft | 500 kts | 20° |
| 2026-05-06 02:05 | 50.82473 | 8.69812 | 34745 ft | 497 kts | 39° |
| 2026-05-06 02:06 | 50.87133 | 8.77587 | 34753 ft | 487 kts | 54° |
| 2026-05-06 02:06 | 50.91227 | 8.86159 | 34754 ft | 489 kts | 54° |
| 2026-05-06 02:07 | 50.95352 | 8.94783 | 34773 ft | 493 kts | 54° |
| 2026-05-06 02:07 | 50.99476 | 9.03465 | 34767 ft | 492 kts | 54° |
| 2026-05-06 02:08 | 51.03546 | 9.12044 | 34772 ft | 487 kts | 54° |
| 2026-05-06 02:08 | 51.07706 | 9.20521 | 34771 ft | 489 kts | 49° |
| 2026-05-06 02:09 | 51.13035 | 9.27171 | 34779 ft | 486 kts | 31° |
| 2026-05-06 02:09 | 51.19303 | 9.30982 | 34784 ft | 484 kts | 13° |
| 2026-05-06 02:10 | 51.25918 | 9.33261 | 34770 ft | 488 kts | 14° |
| 2026-05-06 02:10 | 51.32564 | 9.35579 | 34768 ft | 489 kts | 13° |
| 2026-05-06 02:11 | 51.39160 | 9.37869 | 34777 ft | 488 kts | 13° |
| 2026-05-06 02:11 | 51.45781 | 9.40186 | 34778 ft | 487 kts | 14° |
| 2026-05-06 02:12 | 51.52392 | 9.42500 | 34775 ft | 486 kts | 14° |
| 2026-05-06 02:12 | 51.58987 | 9.44818 | 34772 ft | 485 kts | 14° |
| 2026-05-06 02:13 | 51.65546 | 9.47129 | 34772 ft | 486 kts | 14° |
| 2026-05-06 02:13 | 51.72188 | 9.49478 | 34765 ft | 492 kts | 14° |
| 2026-05-06 02:14 | 51.78898 | 9.51853 | 34775 ft | 493 kts | 14° |
| 2026-05-06 02:14 | 51.85347 | 9.55263 | 34766 ft | 485 kts | 29° |
| 2026-05-06 02:15 | 51.91330 | 9.60231 | 34774 ft | 484 kts | 30° |
| 2026-05-06 02:15 | 51.97338 | 9.65198 | 34779 ft | 490 kts | 30° |
| 2026-05-06 02:16 | 52.03396 | 9.70243 | 34786 ft | 488 kts | 30° |
| 2026-05-06 02:16 | 52.09425 | 9.75274 | 34792 ft | 486 kts | 30° |
| 2026-05-06 02:17 | 52.15437 | 9.80306 | 34794 ft | 489 kts | 30° |
| 2026-05-06 02:17 | 52.21530 | 9.85421 | 34807 ft | 494 kts | 30° |
| 2026-05-06 02:18 | 52.27837 | 9.89630 | 34823 ft | 495 kts | 17° |
| 2026-05-06 02:18 | 52.34484 | 9.92530 | 34827 ft | 494 kts | 17° |
| 2026-05-06 02:19 | 52.41165 | 9.95486 | 34831 ft | 502 kts | 17° |
| 2026-05-06 02:19 | 52.47924 | 9.98462 | 34832 ft | 501 kts | 17° |
| 2026-05-06 02:20 | 52.57907 | 10.02899 | 34819 ft | 497 kts | 17° |
| 2026-05-06 02:21 | 52.64624 | 10.05901 | 34821 ft | 504 kts | 17° |
| 2026-05-06 02:21 | 52.71396 | 10.08927 | 34821 ft | 503 kts | 17° |
| 2026-05-06 02:22 | 52.78152 | 10.11884 | 34820 ft | 501 kts | 16° |
| 2026-05-06 02:22 | 52.84851 | 10.14732 | 34819 ft | 501 kts | 15° |
| 2026-05-06 02:23 | 52.91655 | 10.17542 | 34831 ft | 507 kts | 15° |
| 2026-05-06 02:23 | 52.98513 | 10.20285 | 34833 ft | 505 kts | 14° |
| 2026-05-06 02:24 | 53.05413 | 10.22100 | 34833 ft | 503 kts | 358° |
| 2026-05-06 02:24 | 53.12297 | 10.20355 | 34828 ft | 509 kts | 347° |
| 2026-05-06 02:25 | 53.19292 | 10.18167 | 34772 ft | 512 kts | 352° |
| 2026-05-06 02:25 | 53.26339 | 10.16985 | 34726 ft | 500 kts | 353° |
| 2026-05-06 02:25 | 53.29714 | 10.16159 | 34666 ft | 480 kts | 350° |
| 2026-05-06 02:26 | 53.32937 | 10.15287 | 34565 ft | 460 kts | 350° |
| 2026-05-06 02:26 | 53.35978 | 10.14123 | 34402 ft | 438 kts | 340° |
| 2026-05-06 02:26 | 53.38738 | 10.12247 | 34197 ft | 419 kts | 330° |
| 2026-05-06 02:26 | 53.41192 | 10.09807 | 33990 ft | 403 kts | 321° |
| 2026-05-06 02:27 | 53.43327 | 10.06938 | 33368 ft | 400 kts | 312° |
| 2026-05-06 02:27 | 53.45241 | 10.03540 | 32617 ft | 400 kts | 306° |
| 2026-05-06 02:27 | 53.46876 | 9.99867 | 31624 ft | 377 kts | 293° |
| 2026-05-06 02:27 | 53.47609 | 9.95816 | 30174 ft | 368 kts | 271° |
| 2026-05-06 02:28 | 53.47488 | 9.91514 | 28696 ft | 373 kts | 254° |
| 2026-05-06 02:28 | 53.46521 | 9.87478 | 27247 ft | 376 kts | 236° |
| 2026-05-06 02:28 | 53.44921 | 9.83987 | 25850 ft | 380 kts | 228° |
| 2026-05-06 02:28 | 53.43177 | 9.80618 | 24474 ft | 385 kts | 227° |
| 2026-05-06 02:29 | 53.41421 | 9.77207 | 23133 ft | 387 kts | 229° |
| 2026-05-06 02:29 | 53.39824 | 9.73962 | 21627 ft | 322 kts | 230° |
| 2026-05-06 02:29 | 53.38528 | 9.71314 | 20450 ft | 280 kts | 229° |
| 2026-05-06 02:29 | 53.37315 | 9.68903 | 19675 ft | 264 kts | 228° |
| 2026-05-06 02:30 | 53.36147 | 9.66594 | 18943 ft | 256 kts | 229° |
| 2026-05-06 02:30 | 53.35008 | 9.64325 | 18240 ft | 253 kts | 229° |
| 2026-05-06 02:30 | 53.33883 | 9.62081 | 17473 ft | 251 kts | 229° |
| 2026-05-06 02:30 | 53.32762 | 9.59852 | 16702 ft | 250 kts | 229° |
| 2026-05-06 02:31 | 53.31640 | 9.57623 | 15908 ft | 249 kts | 229° |
| 2026-05-06 02:31 | 53.30699 | 9.55255 | 15017 ft | 242 kts | 247° |
| 2026-05-06 02:31 | 53.30414 | 9.52537 | 13763 ft | 238 kts | 270° |
| 2026-05-06 02:31 | 53.30761 | 9.49889 | 12427 ft | 233 kts | 292° |
| 2026-05-06 02:32 | 53.31674 | 9.47670 | 11159 ft | 233 kts | 315° |
| 2026-05-06 02:32 | 53.33007 | 9.46199 | 9986 ft | 232 kts | 338° |
| 2026-05-06 02:32 | 53.34568 | 9.45671 | 8739 ft | 227 kts | 1° |
| 2026-05-06 02:32 | 53.36116 | 9.46143 | 7566 ft | 221 kts | 22° |
| 2026-05-06 02:33 | 53.37372 | 9.47434 | 6525 ft | 205 kts | 43° |
| 2026-05-06 02:33 | 53.38005 | 9.48578 | 5884 ft | 200 kts | 52° |
| 2026-05-06 02:33 | 53.39998 | 9.52594 | 4900 ft | 186 kts | 51° |
| 2026-05-06 02:34 | 53.40829 | 9.54248 | 4874 ft | 186 kts | 51° |
| 2026-05-06 02:34 | 53.41671 | 9.55926 | 4766 ft | 190 kts | 51° |
| 2026-05-06 02:34 | 53.42527 | 9.57630 | 4631 ft | 192 kts | 51° |
| 2026-05-06 02:34 | 53.43389 | 9.59346 | 4488 ft | 193 kts | 51° |
| 2026-05-06 02:35 | 53.44252 | 9.61068 | 4328 ft | 194 kts | 51° |
| 2026-05-06 02:35 | 53.45122 | 9.62805 | 4137 ft | 194 kts | 51° |
| 2026-05-06 02:35 | 53.45987 | 9.64530 | 3981 ft | 192 kts | 51° |
| 2026-05-06 02:35 | 53.46796 | 9.66147 | 3856 ft | 191 kts | 51° |
| 2026-05-06 02:36 | 53.47609 | 9.67771 | 3716 ft | 189 kts | 51° |
| 2026-05-06 02:36 | 53.48441 | 9.69435 | 3593 ft | 188 kts | 51° |
| 2026-05-06 02:36 | 53.49275 | 9.71097 | 3507 ft | 185 kts | 51° |
| 2026-05-06 02:36 | 53.50111 | 9.72729 | 3402 ft | 184 kts | 52° |
| 2026-05-06 02:37 | 53.50932 | 9.74415 | 3387 ft | 199 kts | 52° |
| 2026-05-06 02:37 | 53.51855 | 9.76250 | 3261 ft | 209 kts | 51° |
| 2026-05-06 02:37 | 53.52763 | 9.78087 | 3019 ft | 193 kts | 52° |
| 2026-05-06 02:37 | 53.53572 | 9.79723 | 2729 ft | 172 kts | 52° |
| 2026-05-06 02:38 | 53.54306 | 9.81189 | 2488 ft | 156 kts | 52° |
| 2026-05-06 02:38 | 53.54968 | 9.82535 | 2275 ft | 143 kts | 53° |
| 2026-05-06 02:38 | 53.55564 | 9.83740 | 2089 ft | 128 kts | 53° |
| 2026-05-06 02:38 | 53.56131 | 9.84883 | 1921 ft | 128 kts | 53° |
| 2026-05-06 02:39 | 53.56714 | 9.86066 | 1756 ft | 134 kts | 53° |
| 2026-05-06 02:39 | 53.57325 | 9.87285 | 1560 ft | 138 kts | 53° |
| 2026-05-06 02:39 | 53.57936 | 9.88524 | 1376 ft | 140 kts | 52° |
| 2026-05-06 02:39 | 53.58574 | 9.89805 | 1160 ft | 145 kts | 52° |
| 2026-05-06 02:40 | 53.59238 | 9.91108 | 917 ft | 149 kts | 48° |
| 2026-05-06 02:40 | 53.59911 | 9.92480 | 632 ft | 153 kts | 53° |
| 2026-05-06 02:40 | 53.60533 | 9.93871 | 490 ft | 147 kts | 50° |
| 2026-05-06 02:40 | 53.61221 | 9.95204 | 308 ft | 150 kts | 48° |
| 2026-05-06 02:41 | 53.61834 | 9.96406 | 125 ft | 121 kts | 47° |
| 2026-05-06 02:41 | 53.62301 | 9.97339 | 34 ft | 85 kts | 49° |
| 2026-05-06 02:41 | 53.62597 | 9.97931 | 36 ft | 52 kts | 50° |
| 2026-05-06 02:41 | 53.62773 | 9.98294 | 37 ft | 11 kts | 62° |
| 2026-05-06 02:42 | 53.62720 | 9.98383 | 39 ft | 13 kts | 140° |
| 2026-05-06 02:42 | 53.62687 | 9.98431 | 40 ft | 0 kts | 140° |
| 2026-05-06 02:42 | 53.62684 | 9.98437 | 41 ft | 4 kts | 130° |
| 2026-05-06 02:42 | 53.62685 | 9.98530 | 41 ft | 11 kts | 65° |
| 2026-05-06 02:43 | 53.62720 | 9.98621 | 41 ft | 8 kts | 85° |
| 2026-05-06 02:43 | 53.62668 | 9.98686 | 41 ft | 12 kts | 159° |
| 2026-05-06 02:43 | 53.62664 | 9.98692 | 41 ft | 1 kts | 135° |
| 2026-05-06 02:43 | 53.62668 | 9.98740 | 41 ft | 0 kts | 59° |